sensor_id;sensor_type;location;lat;lon;timestamp;P1;durP1;ratioP1;P2;durP2;ratioP2
71896;SDS011;59767;51.344;12.362;2023-08-01T00:00:45;9.85;;;3.65;;
71896;SDS011;59767;51.344;12.362;2023-08-01T00:03:49;9.93;;;3.33;;
71896;SDS011;59767;51.344;12.362;2023-08-01T00:06:53;10.73;;;3.28;;
71896;SDS011;59767;51.344;12.362;2023-08-01T00:09:59;9.25;;;3.30;;
71896;SDS011;59767;51.344;12.362;2023-08-01T00:13:03;10.68;;;3.47;;
71896;SDS011;59767;51.344;12.362;2023-08-01T00:16:07;10.02;;;3.70;;
71896;SDS011;59767;51.344;12.362;2023-08-01T00:19:11;9.18;;;3.40;;
71896;SDS011;59767;51.344;12.362;2023-08-01T00:22:16;10.00;;;3.33;;
71896;SDS011;59767;51.344;12.362;2023-08-01T00:25:19;9.73;;;3.03;;
71896;SDS011;59767;51.344;12.362;2023-08-01T00:28:23;9.98;;;3.35;;
71896;SDS011;59767;51.344;12.362;2023-08-01T00:31:28;10.38;;;3.63;;
71896;SDS011;59767;51.344;12.362;2023-08-01T00:34:32;8.65;;;3.10;;
71896;SDS011;59767;51.344;12.362;2023-08-01T00:37:37;8.45;;;3.33;;
71896;SDS011;59767;51.344;12.362;2023-08-01T00:40:41;8.23;;;3.00;;
71896;SDS011;59767;51.344;12.362;2023-08-01T00:43:45;8.95;;;3.15;;
71896;SDS011;59767;51.344;12.362;2023-08-01T00:46:50;9.18;;;3.10;;
71896;SDS011;59767;51.344;12.362;2023-08-01T00:49:54;8.10;;;3.05;;
71896;SDS011;59767;51.344;12.362;2023-08-01T00:52:58;9.85;;;2.88;;
71896;SDS011;59767;51.344;12.362;2023-08-01T00:56:03;9.35;;;2.88;;
71896;SDS011;59767;51.344;12.362;2023-08-01T00:59:07;8.32;;;2.88;;
71896;SDS011;59767;51.344;12.362;2023-08-01T01:02:15;9.93;;;3.13;;
71896;SDS011;59767;51.344;12.362;2023-08-01T01:05:20;7.60;;;2.95;;
71896;SDS011;59767;51.344;12.362;2023-08-01T01:08:26;7.88;;;2.70;;
71896;SDS011;59767;51.344;12.362;2023-08-01T01:11:30;9.63;;;3.10;;
71896;SDS011;59767;51.344;12.362;2023-08-01T01:14:34;7.95;;;3.10;;
71896;SDS011;59767;51.344;12.362;2023-08-01T01:17:38;9.07;;;3.00;;
71896;SDS011;59767;51.344;12.362;2023-08-01T01:20:43;7.03;;;2.95;;
71896;SDS011;59767;51.344;12.362;2023-08-01T01:23:47;8.68;;;2.97;;
71896;SDS011;59767;51.344;12.362;2023-08-01T01:26:53;7.57;;;2.92;;
71896;SDS011;59767;51.344;12.362;2023-08-01T01:29:58;6.60;;;2.92;;
71896;SDS011;59767;51.344;12.362;2023-08-01T01:33:04;8.55;;;2.95;;
71896;SDS011;59767;51.344;12.362;2023-08-01T01:36:09;8.10;;;2.83;;
71896;SDS011;59767;51.344;12.362;2023-08-01T01:39:13;8.50;;;3.35;;
71896;SDS011;59767;51.344;12.362;2023-08-01T01:42:17;8.82;;;2.90;;
71896;SDS011;59767;51.344;12.362;2023-08-01T01:45:22;7.22;;;3.03;;
71896;SDS011;59767;51.344;12.362;2023-08-01T01:48:29;8.88;;;3.45;;
71896;SDS011;59767;51.344;12.362;2023-08-01T01:51:33;7.97;;;3.20;;
71896;SDS011;59767;51.344;12.362;2023-08-01T01:54:37;7.30;;;3.03;;
71896;SDS011;59767;51.344;12.362;2023-08-01T01:57:41;7.40;;;3.00;;
71896;SDS011;59767;51.344;12.362;2023-08-01T02:00:46;8.80;;;3.20;;
71896;SDS011;59767;51.344;12.362;2023-08-01T02:03:50;8.48;;;3.10;;
71896;SDS011;59767;51.344;12.362;2023-08-01T02:06:54;8.48;;;3.22;;
71896;SDS011;59767;51.344;12.362;2023-08-01T02:09:59;8.77;;;3.30;;
71896;SDS011;59767;51.344;12.362;2023-08-01T02:13:04;9.13;;;3.53;;
71896;SDS011;59767;51.344;12.362;2023-08-01T02:16:08;8.98;;;3.60;;
71896;SDS011;59767;51.344;12.362;2023-08-01T02:19:12;9.48;;;3.38;;
71896;SDS011;59767;51.344;12.362;2023-08-01T02:22:16;7.63;;;3.05;;
71896;SDS011;59767;51.344;12.362;2023-08-01T02:25:20;7.38;;;3.22;;
71896;SDS011;59767;51.344;12.362;2023-08-01T02:28:24;10.70;;;3.50;;
71896;SDS011;59767;51.344;12.362;2023-08-01T02:31:29;9.15;;;3.50;;
71896;SDS011;59767;51.344;12.362;2023-08-01T02:34:33;10.70;;;3.70;;
71896;SDS011;59767;51.344;12.362;2023-08-01T02:37:37;7.60;;;3.00;;
71896;SDS011;59767;51.344;12.362;2023-08-01T02:40:41;8.23;;;3.45;;
71896;SDS011;59767;51.344;12.362;2023-08-01T02:43:45;9.02;;;3.30;;
71896;SDS011;59767;51.344;12.362;2023-08-01T02:46:49;8.63;;;3.25;;
71896;SDS011;59767;51.344;12.362;2023-08-01T02:49:53;8.57;;;3.15;;
71896;SDS011;59767;51.344;12.362;2023-08-01T02:52:57;7.20;;;2.92;;
71896;SDS011;59767;51.344;12.362;2023-08-01T02:56:02;6.15;;;3.03;;
71896;SDS011;59767;51.344;12.362;2023-08-01T02:59:07;9.02;;;3.50;;
71896;SDS011;59767;51.344;12.362;2023-08-01T03:02:12;8.45;;;3.40;;
71896;SDS011;59767;51.344;12.362;2023-08-01T03:05:16;9.07;;;3.83;;
71896;SDS011;59767;51.344;12.362;2023-08-01T03:08:20;7.20;;;3.22;;
71896;SDS011;59767;51.344;12.362;2023-08-01T03:11:25;7.57;;;3.10;;
71896;SDS011;59767;51.344;12.362;2023-08-01T03:14:30;7.72;;;3.30;;
71896;SDS011;59767;51.344;12.362;2023-08-01T03:17:36;8.18;;;2.90;;
71896;SDS011;59767;51.344;12.362;2023-08-01T03:20:40;8.63;;;3.10;;
71896;SDS011;59767;51.344;12.362;2023-08-01T03:23:44;7.90;;;3.05;;
71896;SDS011;59767;51.344;12.362;2023-08-01T03:26:48;8.50;;;2.95;;
71896;SDS011;59767;51.344;12.362;2023-08-01T03:29:53;5.82;;;2.70;;
71896;SDS011;59767;51.344;12.362;2023-08-01T03:32:57;8.57;;;3.33;;
71896;SDS011;59767;51.344;12.362;2023-08-01T03:36:00;6.13;;;2.53;;
71896;SDS011;59767;51.344;12.362;2023-08-01T03:39:05;7.00;;;2.50;;
71896;SDS011;59767;51.344;12.362;2023-08-01T03:42:09;6.10;;;2.80;;
71896;SDS011;59767;51.344;12.362;2023-08-01T03:45:13;8.85;;;2.65;;
71896;SDS011;59767;51.344;12.362;2023-08-01T03:48:18;7.90;;;2.70;;
71896;SDS011;59767;51.344;12.362;2023-08-01T03:51:22;7.85;;;2.65;;
71896;SDS011;59767;51.344;12.362;2023-08-01T03:54:26;7.88;;;2.65;;
71896;SDS011;59767;51.344;12.362;2023-08-01T03:57:31;7.70;;;2.70;;
71896;SDS011;59767;51.344;12.362;2023-08-01T04:00:38;9.57;;;2.60;;
71896;SDS011;59767;51.344;12.362;2023-08-01T04:03:42;6.40;;;2.58;;
71896;SDS011;59767;51.344;12.362;2023-08-01T04:06:46;8.70;;;2.50;;
71896;SDS011;59767;51.344;12.362;2023-08-01T04:09:50;10.70;;;2.97;;
71896;SDS011;59767;51.344;12.362;2023-08-01T04:12:54;6.25;;;2.75;;
71896;SDS011;59767;51.344;12.362;2023-08-01T04:15:59;7.63;;;2.72;;
71896;SDS011;59767;51.344;12.362;2023-08-01T04:19:04;6.90;;;2.88;;
71896;SDS011;59767;51.344;12.362;2023-08-01T04:22:09;9.43;;;2.90;;
71896;SDS011;59767;51.344;12.362;2023-08-01T04:25:13;7.22;;;2.63;;
71896;SDS011;59767;51.344;12.362;2023-08-01T04:28:17;8.82;;;2.58;;
71896;SDS011;59767;51.344;12.362;2023-08-01T04:31:21;7.10;;;2.83;;
71896;SDS011;59767;51.344;12.362;2023-08-01T04:34:26;7.72;;;2.65;;
71896;SDS011;59767;51.344;12.362;2023-08-01T04:37:30;5.57;;;2.50;;
71896;SDS011;59767;51.344;12.362;2023-08-01T04:40:34;6.97;;;3.35;;
71896;SDS011;59767;51.344;12.362;2023-08-01T04:43:38;6.82;;;2.55;;
71896;SDS011;59767;51.344;12.362;2023-08-01T04:46:42;4.85;;;2.20;;
71896;SDS011;59767;51.344;12.362;2023-08-01T04:49:47;7.63;;;2.40;;
71896;SDS011;59767;51.344;12.362;2023-08-01T04:52:50;6.38;;;2.40;;
71896;SDS011;59767;51.344;12.362;2023-08-01T04:55:54;7.40;;;2.60;;
71896;SDS011;59767;51.344;12.362;2023-08-01T04:58:58;5.50;;;2.10;;
71896;SDS011;59767;51.344;12.362;2023-08-01T05:02:03;6.32;;;2.38;;
71896;SDS011;59767;51.344;12.362;2023-08-01T05:05:07;8.50;;;2.30;;
71896;SDS011;59767;51.344;12.362;2023-08-01T05:08:11;5.45;;;2.15;;
71896;SDS011;59767;51.344;12.362;2023-08-01T05:11:15;6.03;;;2.50;;
71896;SDS011;59767;51.344;12.362;2023-08-01T05:14:19;8.05;;;2.42;;
71896;SDS011;59767;51.344;12.362;2023-08-01T05:17:24;7.57;;;2.40;;
71896;SDS011;59767;51.344;12.362;2023-08-01T05:20:28;7.25;;;2.60;;
71896;SDS011;59767;51.344;12.362;2023-08-01T05:23:34;7.40;;;2.15;;
71896;SDS011;59767;51.344;12.362;2023-08-01T05:26:39;9.07;;;2.20;;
71896;SDS011;59767;51.344;12.362;2023-08-01T05:29:43;8.73;;;2.45;;
71896;SDS011;59767;51.344;12.362;2023-08-01T05:32:48;5.00;;;2.10;;
71896;SDS011;59767;51.344;12.362;2023-08-01T05:35:52;5.00;;;1.95;;
71896;SDS011;59767;51.344;12.362;2023-08-01T05:38:57;6.22;;;2.28;;
71896;SDS011;59767;51.344;12.362;2023-08-01T05:42:01;6.47;;;2.00;;
71896;SDS011;59767;51.344;12.362;2023-08-01T05:45:05;7.53;;;1.92;;
71896;SDS011;59767;51.344;12.362;2023-08-01T05:48:10;5.95;;;1.88;;
71896;SDS011;59767;51.344;12.362;2023-08-01T05:51:14;7.28;;;1.83;;
71896;SDS011;59767;51.344;12.362;2023-08-01T05:54:19;5.22;;;2.08;;
71896;SDS011;59767;51.344;12.362;2023-08-01T05:57:23;7.65;;;1.85;;
71896;SDS011;59767;51.344;12.362;2023-08-01T06:00:27;4.82;;;1.85;;
71896;SDS011;59767;51.344;12.362;2023-08-01T06:03:31;6.60;;;1.70;;
71896;SDS011;59767;51.344;12.362;2023-08-01T06:06:36;4.78;;;1.90;;
71896;SDS011;59767;51.344;12.362;2023-08-01T06:09:40;4.55;;;1.65;;
71896;SDS011;59767;51.344;12.362;2023-08-01T06:12:44;6.50;;;1.95;;
71896;SDS011;59767;51.344;12.362;2023-08-01T06:15:49;3.70;;;1.52;;
71896;SDS011;59767;51.344;12.362;2023-08-01T06:18:53;7.05;;;1.90;;
71896;SDS011;59767;51.344;12.362;2023-08-01T06:21:59;4.78;;;1.75;;
71896;SDS011;59767;51.344;12.362;2023-08-01T06:25:04;4.90;;;1.60;;
71896;SDS011;59767;51.344;12.362;2023-08-01T06:28:08;6.95;;;1.60;;
71896;SDS011;59767;51.344;12.362;2023-08-01T06:31:12;8.80;;;1.77;;
71896;SDS011;59767;51.344;12.362;2023-08-01T06:34:17;4.82;;;1.55;;
71896;SDS011;59767;51.344;12.362;2023-08-01T06:37:21;3.75;;;1.48;;
71896;SDS011;59767;51.344;12.362;2023-08-01T06:40:25;7.40;;;1.63;;
71896;SDS011;59767;51.344;12.362;2023-08-01T06:43:29;4.38;;;1.65;;
71896;SDS011;59767;51.344;12.362;2023-08-01T06:46:33;5.15;;;1.50;;
71896;SDS011;59767;51.344;12.362;2023-08-01T06:49:37;2.88;;;1.20;;
71896;SDS011;59767;51.344;12.362;2023-08-01T06:52:41;3.30;;;1.02;;
71896;SDS011;59767;51.344;12.362;2023-08-01T06:55:45;1.90;;;0.90;;
71896;SDS011;59767;51.344;12.362;2023-08-01T06:58:49;4.50;;;1.13;;
71896;SDS011;59767;51.344;12.362;2023-08-01T07:01:55;3.88;;;1.00;;
71896;SDS011;59767;51.344;12.362;2023-08-01T07:04:59;5.90;;;1.23;;
71896;SDS011;59767;51.344;12.362;2023-08-01T07:08:03;4.90;;;1.00;;
71896;SDS011;59767;51.344;12.362;2023-08-01T07:11:07;4.25;;;1.20;;
71896;SDS011;59767;51.344;12.362;2023-08-01T07:14:11;6.22;;;1.10;;
71896;SDS011;59767;51.344;12.362;2023-08-01T07:17:16;5.30;;;1.08;;
71896;SDS011;59767;51.344;12.362;2023-08-01T07:20:20;1.33;;;0.80;;
71896;SDS011;59767;51.344;12.362;2023-08-01T07:23:24;3.70;;;1.10;;
71896;SDS011;59767;51.344;12.362;2023-08-01T07:26:28;2.45;;;0.80;;
71896;SDS011;59767;51.344;12.362;2023-08-01T07:29:33;2.45;;;0.80;;
71896;SDS011;59767;51.344;12.362;2023-08-01T07:32:38;2.00;;;0.88;;
71896;SDS011;59767;51.344;12.362;2023-08-01T07:35:42;5.45;;;1.00;;
71896;SDS011;59767;51.344;12.362;2023-08-01T07:38:46;2.55;;;0.90;;
71896;SDS011;59767;51.344;12.362;2023-08-01T07:41:50;2.42;;;1.00;;
71896;SDS011;59767;51.344;12.362;2023-08-01T07:44:55;5.82;;;0.90;;
71896;SDS011;59767;51.344;12.362;2023-08-01T07:47:59;5.18;;;0.90;;
71896;SDS011;59767;51.344;12.362;2023-08-01T07:51:03;6.25;;;1.00;;
71896;SDS011;59767;51.344;12.362;2023-08-01T07:54:10;3.20;;;1.00;;
71896;SDS011;59767;51.344;12.362;2023-08-01T07:57:14;2.55;;;0.80;;
71896;SDS011;59767;51.344;12.362;2023-08-01T08:00:19;5.50;;;1.20;;
71896;SDS011;59767;51.344;12.362;2023-08-01T08:03:23;6.25;;;1.20;;
71896;SDS011;59767;51.344;12.362;2023-08-01T08:06:28;3.88;;;1.00;;
71896;SDS011;59767;51.344;12.362;2023-08-01T08:09:32;2.20;;;0.75;;
71896;SDS011;59767;51.344;12.362;2023-08-01T08:12:36;3.38;;;0.80;;
71896;SDS011;59767;51.344;12.362;2023-08-01T08:15:40;3.53;;;0.93;;
71896;SDS011;59767;51.344;12.362;2023-08-01T08:18:45;4.10;;;0.90;;
71896;SDS011;59767;51.344;12.362;2023-08-01T08:21:49;1.60;;;0.75;;
71896;SDS011;59767;51.344;12.362;2023-08-01T08:24:53;3.28;;;1.00;;
71896;SDS011;59767;51.344;12.362;2023-08-01T08:27:57;2.75;;;1.00;;
71896;SDS011;59767;51.344;12.362;2023-08-01T08:31:02;2.88;;;1.00;;
71896;SDS011;59767;51.344;12.362;2023-08-01T08:34:07;3.80;;;0.98;;
71896;SDS011;59767;51.344;12.362;2023-08-01T08:37:11;3.75;;;1.10;;
71896;SDS011;59767;51.344;12.362;2023-08-01T08:40:15;2.10;;;0.95;;
71896;SDS011;59767;51.344;12.362;2023-08-01T08:43:19;2.28;;;0.90;;
71896;SDS011;59767;51.344;12.362;2023-08-01T08:46:28;3.70;;;1.08;;
71896;SDS011;59767;51.344;12.362;2023-08-01T08:49:33;4.70;;;1.00;;
71896;SDS011;59767;51.344;12.362;2023-08-01T08:52:37;3.38;;;0.98;;
71896;SDS011;59767;51.344;12.362;2023-08-01T08:55:42;2.15;;;0.88;;
71896;SDS011;59767;51.344;12.362;2023-08-01T08:58:46;3.38;;;1.05;;
71896;SDS011;59767;51.344;12.362;2023-08-01T09:01:51;3.13;;;1.00;;
71896;SDS011;59767;51.344;12.362;2023-08-01T09:04:57;4.43;;;1.15;;
71896;SDS011;59767;51.344;12.362;2023-08-01T09:08:01;4.47;;;1.20;;
71896;SDS011;59767;51.344;12.362;2023-08-01T09:11:11;2.35;;;1.10;;
71896;SDS011;59767;51.344;12.362;2023-08-01T09:14:15;2.25;;;0.93;;
71896;SDS011;59767;51.344;12.362;2023-08-01T09:17:20;4.13;;;1.15;;
71896;SDS011;59767;51.344;12.362;2023-08-01T09:20:25;2.40;;;0.93;;
71896;SDS011;59767;51.344;12.362;2023-08-01T09:23:29;3.67;;;1.08;;
71896;SDS011;59767;51.344;12.362;2023-08-01T09:26:34;4.97;;;1.08;;
71896;SDS011;59767;51.344;12.362;2023-08-01T09:29:38;3.00;;;1.10;;
71896;SDS011;59767;51.344;12.362;2023-08-01T09:32:55;2.53;;;1.00;;
71896;SDS011;59767;51.344;12.362;2023-08-01T09:36:00;0.88;;;0.70;;
71896;SDS011;59767;51.344;12.362;2023-08-01T09:39:07;3.08;;;1.00;;
71896;SDS011;59767;51.344;12.362;2023-08-01T09:42:11;3.33;;;0.95;;
71896;SDS011;59767;51.344;12.362;2023-08-01T09:45:16;3.20;;;1.00;;
71896;SDS011;59767;51.344;12.362;2023-08-01T09:48:27;1.67;;;1.00;;
71896;SDS011;59767;51.344;12.362;2023-08-01T09:51:33;1.90;;;1.15;;
71896;SDS011;59767;51.344;12.362;2023-08-01T09:54:37;2.38;;;1.25;;
71896;SDS011;59767;51.344;12.362;2023-08-01T09:57:41;2.80;;;1.10;;
71896;SDS011;59767;51.344;12.362;2023-08-01T10:00:50;6.90;;;1.60;;
71896;SDS011;59767;51.344;12.362;2023-08-01T10:03:54;6.80;;;1.20;;
71896;SDS011;59767;51.344;12.362;2023-08-01T10:07:06;3.38;;;1.00;;
71896;SDS011;59767;51.344;12.362;2023-08-01T10:10:12;2.28;;;0.80;;
71896;SDS011;59767;51.344;12.362;2023-08-01T10:13:17;3.92;;;1.00;;
71896;SDS011;59767;51.344;12.362;2023-08-01T10:16:22;1.92;;;1.00;;
71896;SDS011;59767;51.344;12.362;2023-08-01T10:19:29;2.97;;;1.10;;
71896;SDS011;59767;51.344;12.362;2023-08-01T10:22:36;2.00;;;0.82;;
71896;SDS011;59767;51.344;12.362;2023-08-01T10:25:41;2.85;;;1.05;;
71896;SDS011;59767;51.344;12.362;2023-08-01T10:28:50;5.82;;;0.88;;
71896;SDS011;59767;51.344;12.362;2023-08-01T10:31:56;3.05;;;1.00;;
71896;SDS011;59767;51.344;12.362;2023-08-01T10:35:00;5.20;;;1.17;;
71896;SDS011;59767;51.344;12.362;2023-08-01T10:38:11;3.17;;;1.05;;
71896;SDS011;59767;51.344;12.362;2023-08-01T10:41:19;4.78;;;1.00;;
71896;SDS011;59767;51.344;12.362;2023-08-01T10:44:30;4.00;;;1.00;;
71896;SDS011;59767;51.344;12.362;2023-08-01T10:47:37;4.47;;;0.93;;
71896;SDS011;59767;51.344;12.362;2023-08-01T10:50:41;3.67;;;1.50;;
71896;SDS011;59767;51.344;12.362;2023-08-01T10:53:46;2.20;;;0.90;;
71896;SDS011;59767;51.344;12.362;2023-08-01T10:56:51;3.75;;;0.85;;
71896;SDS011;59767;51.344;12.362;2023-08-01T10:59:57;1.27;;;0.80;;
71896;SDS011;59767;51.344;12.362;2023-08-01T11:03:02;4.10;;;1.10;;
71896;SDS011;59767;51.344;12.362;2023-08-01T11:06:06;2.95;;;1.15;;
71896;SDS011;59767;51.344;12.362;2023-08-01T11:09:21;3.22;;;1.20;;
71896;SDS011;59767;51.344;12.362;2023-08-01T11:12:26;4.70;;;1.27;;
71896;SDS011;59767;51.344;12.362;2023-08-01T11:15:31;5.10;;;1.30;;
71896;SDS011;59767;51.344;12.362;2023-08-01T11:18:42;2.85;;;1.40;;
71896;SDS011;59767;51.344;12.362;2023-08-01T11:21:46;3.75;;;1.63;;
71896;SDS011;59767;51.344;12.362;2023-08-01T11:24:51;2.28;;;1.30;;
71896;SDS011;59767;51.344;12.362;2023-08-01T11:27:55;6.72;;;1.50;;
71896;SDS011;59767;51.344;12.362;2023-08-01T11:30:59;3.47;;;1.50;;
71896;SDS011;59767;51.344;12.362;2023-08-01T11:34:04;6.05;;;1.80;;
71896;SDS011;59767;51.344;12.362;2023-08-01T11:37:09;4.45;;;1.70;;
71896;SDS011;59767;51.344;12.362;2023-08-01T11:40:14;5.45;;;1.83;;
71896;SDS011;59767;51.344;12.362;2023-08-01T11:43:19;2.92;;;1.40;;
71896;SDS011;59767;51.344;12.362;2023-08-01T11:46:29;5.90;;;1.52;;
71896;SDS011;59767;51.344;12.362;2023-08-01T11:49:37;5.40;;;2.03;;
71896;SDS011;59767;51.344;12.362;2023-08-01T11:52:45;5.30;;;1.83;;
71896;SDS011;59767;51.344;12.362;2023-08-01T11:55:50;5.40;;;1.95;;
71896;SDS011;59767;51.344;12.362;2023-08-01T11:59:06;7.38;;;2.10;;
71896;SDS011;59767;51.344;12.362;2023-08-01T12:02:25;6.32;;;2.03;;
71896;SDS011;59767;51.344;12.362;2023-08-01T12:05:30;4.95;;;2.20;;
71896;SDS011;59767;51.344;12.362;2023-08-01T12:08:35;6.90;;;2.30;;
71896;SDS011;59767;51.344;12.362;2023-08-01T12:11:40;6.00;;;2.20;;
71896;SDS011;59767;51.344;12.362;2023-08-01T12:14:45;5.55;;;2.10;;
71896;SDS011;59767;51.344;12.362;2023-08-01T12:17:49;8.57;;;2.25;;
71896;SDS011;59767;51.344;12.362;2023-08-01T12:20:53;7.55;;;2.50;;
71896;SDS011;59767;51.344;12.362;2023-08-01T12:23:58;8.07;;;2.50;;
71896;SDS011;59767;51.344;12.362;2023-08-01T12:27:12;7.82;;;2.38;;
71896;SDS011;59767;51.344;12.362;2023-08-01T12:33:20;5.07;;;2.22;;
71896;SDS011;59767;51.344;12.362;2023-08-01T12:36:30;9.18;;;2.40;;
71896;SDS011;59767;51.344;12.362;2023-08-01T12:39:34;8.27;;;2.15;;
71896;SDS011;59767;51.344;12.362;2023-08-01T12:42:38;8.38;;;2.22;;
71896;SDS011;59767;51.344;12.362;2023-08-01T12:45:42;5.78;;;2.45;;
71896;SDS011;59767;51.344;12.362;2023-08-01T12:48:47;6.00;;;2.45;;
71896;SDS011;59767;51.344;12.362;2023-08-01T12:51:51;7.10;;;2.45;;
71896;SDS011;59767;51.344;12.362;2023-08-01T12:54:55;9.65;;;3.03;;
71896;SDS011;59767;51.344;12.362;2023-08-01T12:58:00;5.63;;;2.38;;
71896;SDS011;59767;51.344;12.362;2023-08-01T13:01:04;4.55;;;2.05;;
71896;SDS011;59767;51.344;12.362;2023-08-01T13:04:08;6.50;;;2.55;;
71896;SDS011;59767;51.344;12.362;2023-08-01T13:07:12;9.02;;;2.33;;
71896;SDS011;59767;51.344;12.362;2023-08-01T13:10:16;6.20;;;2.58;;
71896;SDS011;59767;51.344;12.362;2023-08-01T13:13:20;6.22;;;2.50;;
71896;SDS011;59767;51.344;12.362;2023-08-01T13:16:24;6.60;;;2.88;;
71896;SDS011;59767;51.344;12.362;2023-08-01T13:19:29;5.90;;;2.70;;
71896;SDS011;59767;51.344;12.362;2023-08-01T13:22:33;5.82;;;2.50;;
71896;SDS011;59767;51.344;12.362;2023-08-01T13:25:37;7.97;;;2.92;;
71896;SDS011;59767;51.344;12.362;2023-08-01T13:28:41;7.90;;;3.00;;
71896;SDS011;59767;51.344;12.362;2023-08-01T13:31:45;7.85;;;3.55;;
71896;SDS011;59767;51.344;12.362;2023-08-01T13:34:49;7.78;;;3.13;;
71896;SDS011;59767;51.344;12.362;2023-08-01T13:37:54;9.80;;;3.92;;
71896;SDS011;59767;51.344;12.362;2023-08-01T13:40:58;6.80;;;3.45;;
71896;SDS011;59767;51.344;12.362;2023-08-01T13:44:04;7.57;;;3.53;;
71896;SDS011;59767;51.344;12.362;2023-08-01T13:47:08;7.43;;;3.50;;
71896;SDS011;59767;51.344;12.362;2023-08-01T13:50:13;11.77;;;3.60;;
71896;SDS011;59767;51.344;12.362;2023-08-01T13:53:18;8.55;;;3.63;;
71896;SDS011;59767;51.344;12.362;2023-08-01T13:56:22;8.20;;;3.55;;
71896;SDS011;59767;51.344;12.362;2023-08-01T13:59:26;8.30;;;3.42;;
71896;SDS011;59767;51.344;12.362;2023-08-01T14:02:31;9.50;;;3.67;;
71896;SDS011;59767;51.344;12.362;2023-08-01T14:05:35;6.60;;;3.65;;
71896;SDS011;59767;51.344;12.362;2023-08-01T14:08:40;8.98;;;4.50;;
71896;SDS011;59767;51.344;12.362;2023-08-01T14:11:45;11.98;;;2.70;;
71896;SDS011;59767;51.344;12.362;2023-08-01T14:14:49;6.95;;;2.60;;
71896;SDS011;59767;51.344;12.362;2023-08-01T14:17:54;11.43;;;2.90;;
71896;SDS011;59767;51.344;12.362;2023-08-01T14:20:58;7.47;;;3.20;;
71896;SDS011;59767;51.344;12.362;2023-08-01T14:24:03;12.05;;;4.18;;
71896;SDS011;59767;51.344;12.362;2023-08-01T14:27:07;9.48;;;4.35;;
71896;SDS011;59767;51.344;12.362;2023-08-01T14:30:12;9.07;;;4.40;;
71896;SDS011;59767;51.344;12.362;2023-08-01T14:33:16;8.63;;;4.10;;
71896;SDS011;59767;51.344;12.362;2023-08-01T14:36:20;9.07;;;4.07;;
71896;SDS011;59767;51.344;12.362;2023-08-01T14:39:24;9.25;;;3.92;;
71896;SDS011;59767;51.344;12.362;2023-08-01T14:42:29;13.82;;;4.38;;
71896;SDS011;59767;51.344;12.362;2023-08-01T14:45:36;7.57;;;3.60;;
71896;SDS011;59767;51.344;12.362;2023-08-01T14:48:42;9.55;;;3.83;;
71896;SDS011;59767;51.344;12.362;2023-08-01T14:51:47;11.10;;;3.33;;
71896;SDS011;59767;51.344;12.362;2023-08-01T14:54:53;8.00;;;3.10;;
71896;SDS011;59767;51.344;12.362;2023-08-01T14:57:57;5.47;;;2.58;;
71896;SDS011;59767;51.344;12.362;2023-08-01T15:01:01;7.72;;;2.67;;
71896;SDS011;59767;51.344;12.362;2023-08-01T15:04:05;5.72;;;2.53;;
71896;SDS011;59767;51.344;12.362;2023-08-01T15:07:10;5.60;;;2.22;;
71896;SDS011;59767;51.344;12.362;2023-08-01T15:10:14;5.55;;;2.10;;
71896;SDS011;59767;51.344;12.362;2023-08-01T15:13:18;5.65;;;2.00;;
71896;SDS011;59767;51.344;12.362;2023-08-01T15:16:22;5.50;;;2.10;;
71896;SDS011;59767;51.344;12.362;2023-08-01T15:19:26;6.20;;;2.15;;
71896;SDS011;59767;51.344;12.362;2023-08-01T15:22:31;4.85;;;2.03;;
71896;SDS011;59767;51.344;12.362;2023-08-01T15:25:34;5.13;;;1.73;;
71896;SDS011;59767;51.344;12.362;2023-08-01T15:28:41;5.38;;;1.90;;
71896;SDS011;59767;51.344;12.362;2023-08-01T15:31:45;4.65;;;1.92;;
71896;SDS011;59767;51.344;12.362;2023-08-01T15:34:49;4.93;;;1.80;;
71896;SDS011;59767;51.344;12.362;2023-08-01T15:37:53;5.32;;;1.80;;
71896;SDS011;59767;51.344;12.362;2023-08-01T15:40:57;3.55;;;1.80;;
71896;SDS011;59767;51.344;12.362;2023-08-01T15:44:02;3.47;;;1.90;;
71896;SDS011;59767;51.344;12.362;2023-08-01T15:47:06;8.10;;;2.30;;
71896;SDS011;59767;51.344;12.362;2023-08-01T15:50:10;5.07;;;2.13;;
71896;SDS011;59767;51.344;12.362;2023-08-01T15:53:15;6.13;;;2.20;;
71896;SDS011;59767;51.344;12.362;2023-08-01T15:56:19;6.03;;;1.95;;
71896;SDS011;59767;51.344;12.362;2023-08-01T15:59:23;9.02;;;2.33;;
71896;SDS011;59767;51.344;12.362;2023-08-01T16:02:27;7.72;;;2.42;;
71896;SDS011;59767;51.344;12.362;2023-08-01T16:05:31;4.57;;;1.98;;
71896;SDS011;59767;51.344;12.362;2023-08-01T16:08:35;4.63;;;2.00;;
71896;SDS011;59767;51.344;12.362;2023-08-01T16:11:40;4.30;;;2.05;;
71896;SDS011;59767;51.344;12.362;2023-08-01T16:14:44;6.55;;;2.30;;
71896;SDS011;59767;51.344;12.362;2023-08-01T16:17:48;4.70;;;2.15;;
71896;SDS011;59767;51.344;12.362;2023-08-01T16:20:53;4.28;;;1.85;;
71896;SDS011;59767;51.344;12.362;2023-08-01T16:23:57;7.45;;;1.95;;
71896;SDS011;59767;51.344;12.362;2023-08-01T16:27:04;5.38;;;1.70;;
71896;SDS011;59767;51.344;12.362;2023-08-01T16:30:09;3.25;;;1.73;;
71896;SDS011;59767;51.344;12.362;2023-08-01T16:33:13;4.30;;;1.60;;
71896;SDS011;59767;51.344;12.362;2023-08-01T16:36:21;4.55;;;1.75;;
71896;SDS011;59767;51.344;12.362;2023-08-01T16:39:25;4.63;;;1.70;;
71896;SDS011;59767;51.344;12.362;2023-08-01T16:42:29;3.78;;;1.60;;
71896;SDS011;59767;51.344;12.362;2023-08-01T16:45:33;6.80;;;1.73;;
71896;SDS011;59767;51.344;12.362;2023-08-01T16:48:37;5.38;;;1.77;;
71896;SDS011;59767;51.344;12.362;2023-08-01T16:51:42;4.32;;;1.88;;
71896;SDS011;59767;51.344;12.362;2023-08-01T16:54:46;4.72;;;2.15;;
71896;SDS011;59767;51.344;12.362;2023-08-01T16:57:50;5.55;;;1.70;;
71896;SDS011;59767;51.344;12.362;2023-08-01T17:00:54;5.10;;;1.70;;
71896;SDS011;59767;51.344;12.362;2023-08-01T17:03:59;5.35;;;1.35;;
71896;SDS011;59767;51.344;12.362;2023-08-01T17:07:07;4.03;;;1.52;;
71896;SDS011;59767;51.344;12.362;2023-08-01T17:10:11;4.47;;;1.50;;
71896;SDS011;59767;51.344;12.362;2023-08-01T17:13:16;4.15;;;1.60;;
71896;SDS011;59767;51.344;12.362;2023-08-01T17:16:21;6.57;;;1.63;;
71896;SDS011;59767;51.344;12.362;2023-08-01T17:19:25;6.80;;;1.70;;
71896;SDS011;59767;51.344;12.362;2023-08-01T17:22:29;4.63;;;1.65;;
71896;SDS011;59767;51.344;12.362;2023-08-01T17:25:33;4.93;;;1.60;;
71896;SDS011;59767;51.344;12.362;2023-08-01T17:28:37;4.82;;;1.60;;
71896;SDS011;59767;51.344;12.362;2023-08-01T17:31:41;5.43;;;1.40;;
71896;SDS011;59767;51.344;12.362;2023-08-01T17:34:45;3.88;;;1.55;;
71896;SDS011;59767;51.344;12.362;2023-08-01T17:37:50;6.30;;;1.90;;
71896;SDS011;59767;51.344;12.362;2023-08-01T17:40:54;3.55;;;1.60;;
71896;SDS011;59767;51.344;12.362;2023-08-01T17:44:00;4.10;;;1.58;;
71896;SDS011;59767;51.344;12.362;2023-08-01T17:47:05;4.85;;;1.60;;
71896;SDS011;59767;51.344;12.362;2023-08-01T17:50:09;7.50;;;1.67;;
71896;SDS011;59767;51.344;12.362;2023-08-01T17:53:13;4.10;;;1.70;;
71896;SDS011;59767;51.344;12.362;2023-08-01T17:56:17;3.17;;;1.40;;
71896;SDS011;59767;51.344;12.362;2023-08-01T17:59:22;6.25;;;1.50;;
71896;SDS011;59767;51.344;12.362;2023-08-01T18:02:27;4.30;;;1.52;;
71896;SDS011;59767;51.344;12.362;2023-08-01T18:05:32;3.67;;;1.58;;
71896;SDS011;59767;51.344;12.362;2023-08-01T18:08:36;4.65;;;1.48;;
71896;SDS011;59767;51.344;12.362;2023-08-01T18:11:40;4.13;;;1.70;;
71896;SDS011;59767;51.344;12.362;2023-08-01T18:14:45;3.90;;;1.60;;
71896;SDS011;59767;51.344;12.362;2023-08-01T18:17:49;2.83;;;1.40;;